Time;durP1;ratioP1;P1;durP2;ratioP2;P2;SDS_P1;SDS_P2;PMS_P1;PMS_P2;Temp;Humidity;BMP_temperature;BMP_pressure;BME280_temperature;BME280_humidity;BME280_pressure;Samples;Min_cycle;Max_cycle;Signal;HPM_P1;HPM_P2
2022/06/29 00:01:36;;;;;;;1.50;1.30;;;22.90;78.30;;;;;;5079158;28;20238;-94
2022/06/29 00:04:01;;;;;;;5.10;1.80;;;22.80;78.80;;;;;;5079345;28;20172;-94
2022/06/29 00:06:33;;;;;;;2.90;1.90;;;22.80;78.90;;;;;;5078668;28;20270;-94
2022/06/29 00:08:58;;;;;;;5.27;1.87;;;22.80;79.20;;;;;;5079497;28;20188;-94
2022/06/29 00:11:24;;;;;;;3.80;2.40;;;22.80;79.60;;;;;;5074669;28;20239;-94
2022/06/29 00:13:50;;;;;;;3.70;1.83;;;22.80;79.50;;;;;;5079984;28;20185;-94
2022/06/29 00:16:25;;;;;;;2.53;1.70;;;22.80;80.00;;;;;;5079394;28;20168;-95
2022/06/29 00:18:51;;;;;;;2.40;1.77;;;22.70;79.90;;;;;;5081045;28;20175;-93
2022/06/29 00:21:16;;;;;;;2.90;1.77;;;22.60;80.40;;;;;;5080777;28;20199;-94
2022/06/29 00:23:42;;;;;;;4.00;2.20;;;22.50;81.00;;;;;;5080318;28;20263;-95
2022/06/29 00:26:51;;;;;;;4.30;2.30;;;22.50;81.20;;;;;;5081661;28;20160;-94
2022/06/29 00:29:16;;;;;;;2.40;2.00;;;22.50;81.40;;;;;;5083202;28;20237;-95
2022/06/29 00:31:42;;;;;;;3.03;2.20;;;22.60;81.40;;;;;;5083011;28;20175;-94
2022/06/29 00:34:08;;;;;;;3.87;2.20;;;22.60;81.70;;;;;;5083465;28;20190;-95
2022/06/29 00:36:34;;;;;;;3.23;2.10;;;22.60;81.90;;;;;;5083255;28;20188;-94
2022/06/29 00:38:59;;;;;;;2.73;2.23;;;22.60;82.10;;;;;;5083575;28;20164;-95
2022/06/29 00:41:25;;;;;;;2.70;2.03;;;22.60;82.40;;;;;;5084307;28;20215;-95
2022/06/29 00:43:51;;;;;;;4.60;2.20;;;22.60;82.50;;;;;;5084018;28;20182;-95
2022/06/29 00:46:58;;;;;;;6.93;2.50;;;22.60;82.60;;;;;;5083816;28;20174;-94
2022/06/29 00:49:26;;;;;;;2.87;2.07;;;22.60;82.90;;;;;;5083235;28;20243;-96
2022/06/29 00:52:06;;;;;;;5.53;2.40;;;22.50;83.20;;;;;;5077662;28;20191;-95
2022/06/29 00:54:36;;;;;;;4.97;2.00;;;22.50;83.40;;;;;;5075132;28;20745;-94
2022/06/29 00:57:24;;;;;;;2.53;1.97;;;22.50;83.80;;;;;;5074028;28;20172;-94
2022/06/29 00:59:56;;;;;;;4.87;2.23;;;22.50;83.80;;;;;;5032204;28;20180;-94
2022/06/29 01:02:33;;;;;;;3.10;2.03;;;22.50;84.20;;;;;;5076376;28;20231;-94
2022/06/29 01:05:00;;;;;;;3.40;2.30;;;22.40;84.40;;;;;;5077133;28;20199;-94
2022/06/29 01:07:30;;;;;;;2.57;1.80;;;22.40;84.70;;;;;;5077171;28;20185;-94
2022/06/29 01:09:56;;;;;;;4.57;2.67;;;22.40;85.10;;;;;;5076327;28;20180;-94
2022/06/29 01:12:22;;;;;;;2.77;2.00;;;22.40;85.30;;;;;;5075398;28;20198;-94
2022/06/29 01:14:49;;;;;;;3.10;1.80;;;22.30;85.40;;;;;;5075895;28;20428;-94
2022/06/29 01:17:18;;;;;;;3.10;2.20;;;22.30;85.60;;;;;;5073999;28;20196;-94
2022/06/29 01:19:44;;;;;;;3.50;1.80;;;22.30;85.70;;;;;;5071910;28;20458;-94
2022/06/29 01:22:14;;;;;;;5.80;2.40;;;22.20;85.70;;;;;;5076048;28;20207;-94
2022/06/29 01:24:41;;;;;;;5.70;2.13;;;22.20;85.90;;;;;;5073573;28;20202;-94
2022/06/29 01:32:16;;;;;;;4.47;2.10;;;22.20;86.50;;;;;;5090921;28;20227;-8
2022/06/29 01:34:41;;;;;;;3.27;2.00;;;22.10;86.50;;;;;;5094545;28;20222;-10
2022/06/29 01:37:07;;;;;;;4.20;1.97;;;22.10;86.50;;;;;;5094351;28;20236;-10
2022/06/29 01:39:34;;;;;;;3.37;1.90;;;22.10;86.50;;;;;;5078622;28;20185;-10
2022/06/29 01:42:00;;;;;;;3.50;2.00;;;22.10;86.60;;;;;;5095947;28;20483;-10
2022/06/29 01:44:26;;;;;;;3.87;2.00;;;22.10;86.70;;;;;;5095971;28;20171;-12
2022/06/29 01:46:51;;;;;;;3.97;1.70;;;22.10;86.80;;;;;;5095331;28;20178;-13
2022/06/29 01:49:17;;;;;;;3.87;2.40;;;22.10;86.90;;;;;;5096335;28;20501;-13
2022/06/29 01:51:43;;;;;;;4.77;2.40;;;22.10;87.00;;;;;;5096482;28;20459;-13
2022/06/29 01:54:09;;;;;;;3.20;2.00;;;22.00;87.20;;;;;;5097179;28;20186;-10
2022/06/29 01:56:35;;;;;;;3.63;2.20;;;22.00;87.30;;;;;;5096543;28;20190;-10
2022/06/29 01:59:01;;;;;;;2.27;1.73;;;22.00;87.50;;;;;;5096318;28;20621;-10
2022/06/29 02:01:27;;;;;;;4.47;2.20;;;22.00;87.50;;;;;;5096274;28;20477;-10
2022/06/29 02:03:52;;;;;;;3.37;2.10;;;22.00;87.40;;;;;;5097003;28;20262;-10
2022/06/29 02:06:19;;;;;;;2.97;1.80;;;22.00;87.40;;;;;;5078894;28;20167;-10
2022/06/29 02:08:45;;;;;;;4.37;2.10;;;22.00;87.50;;;;;;5078952;28;20240;-10
2022/06/29 02:11:11;;;;;;;3.47;2.53;;;22.00;87.60;;;;;;5097194;28;20451;-10
2022/06/29 02:13:36;;;;;;;3.23;2.20;;;22.00;87.80;;;;;;5079159;28;20182;-10
2022/06/29 02:16:02;;;;;;;4.10;2.30;;;22.00;87.90;;;;;;5096744;28;20182;-10
2022/06/29 02:18:28;;;;;;;3.47;2.00;;;22.00;88.00;;;;;;5079033;28;20178;-10
2022/06/29 02:20:54;;;;;;;2.70;2.13;;;22.00;88.00;;;;;;5096485;28;20207;-10
2022/06/29 02:23:20;;;;;;;2.70;1.93;;;22.00;88.10;;;;;;5096761;28;20217;-10
2022/06/29 02:25:47;;;;;;;4.53;2.40;;;21.90;88.10;;;;;;5096505;28;20158;-10
2022/06/29 02:28:13;;;;;;;3.80;2.17;;;21.90;88.30;;;;;;5078509;28;20528;-10
2022/06/29 02:36:07;;;;;;;5.33;2.17;;;21.90;88.50;;;;;;5095370;28;20232;-10
2022/06/29 02:38:33;;;;;;;3.77;2.13;;;21.90;88.70;;;;;;5095761;28;20167;-10
2022/06/29 02:40:59;;;;;;;3.83;2.43;;;21.90;88.80;;;;;;5096243;28;20206;-10
2022/06/29 02:43:25;;;;;;;3.87;2.30;;;21.90;89.00;;;;;;5078438;28;20202;-10
2022/06/29 02:45:51;;;;;;;4.10;2.30;;;21.90;89.00;;;;;;5078312;28;20178;-10
2022/06/29 02:48:17;;;;;;;4.37;2.40;;;21.90;89.10;;;;;;5095708;28;20167;-10
2022/06/29 02:50:43;;;;;;;3.40;2.07;;;21.90;89.20;;;;;;5078088;28;20178;-10
2022/06/29 02:53:08;;;;;;;4.33;2.03;;;21.80;89.10;;;;;;5095690;28;20511;-10
2022/06/29 02:55:34;;;;;;;3.30;2.33;;;21.80;89.20;;;;;;5096190;28;20167;-10
2022/06/29 02:58:00;;;;;;;3.30;2.17;;;21.80;89.30;;;;;;5096454;28;20167;-11
2022/06/29 03:00:26;;;;;;;4.10;2.60;;;21.80;89.50;;;;;;5078320;28;20179;-11
2022/06/29 03:02:51;;;;;;;3.20;2.50;;;21.80;89.50;;;;;;5078456;28;20171;-11
2022/06/29 03:05:17;;;;;;;4.57;2.30;;;21.80;89.50;;;;;;5095681;28;20174;-11
2022/06/29 03:07:43;;;;;;;5.87;2.80;;;21.80;89.60;;;;;;5095651;28;20223;-11
2022/06/29 03:10:09;;;;;;;3.10;2.50;;;21.80;89.60;;;;;;5095907;28;20198;-11
2022/06/29 03:12:35;;;;;;;5.43;2.87;;;21.80;89.60;;;;;;5096403;28;20240;-11
2022/06/29 03:15:00;;;;;;;5.13;2.40;;;21.80;89.60;;;;;;5095134;28;20174;-11
2022/06/29 03:17:26;;;;;;;4.73;2.63;;;21.80;89.80;;;;;;5095460;28;20272;-11
2022/06/29 03:19:51;;;;;;;4.83;2.70;;;21.80;89.80;;;;;;5077720;28;20219;-11
2022/06/29 03:22:17;;;;;;;3.43;2.20;;;21.80;89.80;;;;;;5094447;28;20202;-11
2022/06/29 03:24:43;;;;;;;5.17;2.33;;;21.80;90.00;;;;;;5095206;28;20173;-11
2022/06/29 03:27:09;;;;;;;3.13;2.10;;;21.70;90.00;;;;;;5095339;28;20174;-11
2022/06/29 03:29:34;;;;;;;3.97;2.40;;;21.70;90.00;;;;;;5076693;28;20171;-11
2022/06/29 03:32:00;;;;;;;3.37;2.20;;;21.70;90.10;;;;;;5077809;28;20194;-11
2022/06/29 03:34:26;;;;;;;5.37;2.87;;;21.70;90.10;;;;;;5095715;28;20170;-11
2022/06/29 03:36:51;;;;;;;7.70;2.80;;;21.70;90.30;;;;;;5094511;28;20186;-11
2022/06/29 03:39:17;;;;;;;4.17;2.20;;;21.70;90.20;;;;;;5095678;28;20178;-11
2022/06/29 03:41:43;;;;;;;3.83;2.37;;;21.70;90.30;;;;;;5077468;28;20206;-11
2022/06/29 03:44:09;;;;;;;5.33;2.23;;;21.70;90.30;;;;;;5094253;28;20175;-11
2022/06/29 03:46:35;;;;;;;5.67;3.03;;;21.70;90.40;;;;;;5077624;28;20182;-11
2022/06/29 03:49:00;;;;;;;5.93;2.73;;;21.70;90.30;;;;;;5094602;28;20182;-11
2022/06/29 03:51:26;;;;;;;4.13;2.73;;;21.80;90.40;;;;;;5095255;28;20610;-11
2022/06/29 03:53:52;;;;;;;5.20;2.60;;;21.70;90.30;;;;;;5076894;28;20620;-11
2022/06/29 03:56:18;;;;;;;5.93;2.43;;;21.70;90.40;;;;;;5093955;28;20171;-11
2022/06/29 03:58:44;;;;;;;3.47;2.50;;;21.70;90.40;;;;;;5076894;28;20207;-11
2022/06/29 04:01:10;;;;;;;4.67;2.30;;;21.70;90.40;;;;;;5078189;28;20583;-11
2022/06/29 04:03:37;;;;;;;5.63;2.50;;;21.80;90.40;;;;;;5097912;28;20197;-11
2022/06/29 04:06:02;;;;;;;5.10;2.60;;;21.70;90.50;;;;;;5098253;28;20182;-11
2022/06/29 04:08:28;;;;;;;5.40;2.30;;;21.80;90.50;;;;;;5078794;28;20171;-11
2022/06/29 04:10:54;;;;;;;2.77;2.10;;;21.80;90.60;;;;;;5096919;28;20471;-11
2022/06/29 04:13:22;;;;;;;2.93;2.20;;;21.80;90.50;;;;;;5096639;28;20251;-11
2022/06/29 04:15:48;;;;;;;4.57;2.50;;;21.80;90.50;;;;;;5079465;28;20181;-11
2022/06/29 04:18:14;;;;;;;4.10;2.40;;;21.80;90.50;;;;;;5079163;28;20170;-11
2022/06/29 04:23:24;;;;;;;3.97;2.60;;;21.80;90.50;;;;;;5096206;28;20276;-11
2022/06/29 04:25:49;;;;;;;3.07;2.30;;;21.80;90.50;;;;;;5079123;28;20175;-11
2022/06/29 04:28:15;;;;;;;3.27;2.20;;;21.80;90.50;;;;;;5079499;28;20167;-11
2022/06/29 04:30:41;;;;;;;4.20;2.37;;;21.80;90.60;;;;;;5097437;28;20195;-11
2022/06/29 04:33:07;;;;;;;3.90;2.73;;;21.80;90.60;;;;;;5078497;28;20183;-11
2022/06/29 04:35:33;;;;;;;3.23;2.50;;;21.80;90.60;;;;;;5079578;28;20636;-11
2022/06/29 04:38:00;;;;;;;5.37;2.50;;;21.80;90.70;;;;;;5097033;28;20232;-11
2022/06/29 04:40:26;;;;;;;3.77;2.10;;;21.80;90.60;;;;;;5096890;28;20217;-11
2022/06/29 04:42:52;;;;;;;3.77;1.90;;;21.80;90.50;;;;;;5097464;28;20167;-11
2022/06/29 04:48:02;;;;;;;4.50;2.60;;;21.80;90.50;;;;;;5096291;28;20204;-11
2022/06/29 04:50:29;;;;;;;6.17;2.63;;;21.80;90.40;;;;;;5095336;28;20191;-11
2022/06/29 04:52:55;;;;;;;3.03;2.53;;;21.80;90.30;;;;;;5095766;28;20544;-11
2022/06/29 04:55:23;;;;;;;5.63;3.00;;;21.90;90.20;;;;;;5095112;28;20533;-11
2022/06/29 04:57:49;;;;;;;4.93;2.60;;;21.90;90.20;;;;;;5095328;28;20228;-11
2022/06/29 05:00:15;;;;;;;4.57;2.97;;;22.00;90.10;;;;;;5086889;22;20619;-11
2022/06/29 05:02:41;;;;;;;3.63;2.47;;;21.90;89.90;;;;;;5093889;28;20622;-11
2022/06/29 05:05:07;;;;;;;4.67;2.67;;;22.00;90.00;;;;;;5095727;28;20175;-11
2022/06/29 05:07:32;;;;;;;6.73;2.37;;;22.00;89.50;;;;;;5084726;28;20175;-11
2022/06/29 05:09:59;;;;;;;3.90;2.47;;;22.10;89.60;;;;;;5078295;28;20171;-11
2022/06/29 05:12:25;;;;;;;3.40;1.80;;;22.10;89.80;;;;;;5075753;28;20203;-11
2022/06/29 05:14:51;;;;;;;10.60;3.27;;;22.10;89.50;;;;;;5075201;28;20237;-11
2022/06/29 05:17:16;;;;;;;17.03;4.93;;;22.20;88.70;;;;;;5074744;28;20180;-11
2022/06/29 05:19:42;;;;;;;3.57;2.30;;;22.30;90.20;;;;;;5073544;28;20183;-11
2022/06/29 05:22:08;;;;;;;2.97;2.03;;;22.30;88.70;;;;;;5074374;28;20223;-11
2022/06/29 05:24:34;;;;;;;4.13;1.93;;;22.40;87.70;;;;;;5074549;28;20168;-11
2022/06/29 05:27:00;;;;;;;2.70;2.30;;;22.50;87.40;;;;;;5074744;28;20238;-11
2022/06/29 05:29:26;;;;;;;3.60;2.10;;;22.50;87.70;;;;;;5075167;28;20203;-11
2022/06/29 05:31:52;;;;;;;4.73;2.47;;;22.50;87.50;;;;;;5074694;28;20268;-11
2022/06/29 05:34:18;;;;;;;5.63;2.70;;;22.50;87.30;;;;;;5075514;28;20476;-11
2022/06/29 05:36:44;;;;;;;5.50;2.70;;;22.60;86.90;;;;;;5073474;28;20571;-11
2022/06/29 05:39:10;;;;;;;4.77;3.10;;;22.60;87.70;;;;;;5074708;28;20553;-11
2022/06/29 05:41:36;;;;;;;3.97;3.30;;;22.60;88.30;;;;;;5074582;28;20571;-11
2022/06/29 05:44:04;;;;;;;3.80;3.33;;;22.60;87.90;;;;;;5074335;28;20564;-11
2022/06/29 05:46:30;;;;;;;5.83;3.70;;;22.60;87.10;;;;;;5073974;28;20280;-11
2022/06/29 05:48:56;;;;;;;5.80;3.50;;;22.70;87.80;;;;;;5072999;28;20278;-11
2022/06/29 05:51:22;;;;;;;9.77;3.80;;;22.60;88.60;;;;;;5072555;28;20644;-11
2022/06/29 05:53:49;;;;;;;8.10;3.57;;;22.70;88.80;;;;;;5072594;28;20181;-11
2022/06/29 05:56:16;;;;;;;6.63;3.00;;;22.70;89.40;;;;;;5072441;28;20396;-11
2022/06/29 05:58:42;;;;;;;6.13;3.10;;;22.70;90.00;;;;;;5073434;28;20183;-11
2022/06/29 06:01:09;;;;;;;4.70;2.77;;;22.80;90.60;;;;;;5071260;28;20220;-11
2022/06/29 06:03:38;;;;;;;2.67;2.10;;;22.80;90.30;;;;;;5071241;28;20177;-11
2022/06/29 06:06:04;;;;;;;5.07;2.10;;;23.00;87.10;;;;;;5070738;28;20198;-11
2022/06/29 06:08:30;;;;;;;2.80;1.93;;;23.20;84.10;;;;;;5072036;28;20176;-11
2022/06/29 06:10:56;;;;;;;3.80;2.00;;;23.30;82.00;;;;;;5071933;28;20566;-11
2022/06/29 06:13:22;;;;;;;5.27;2.20;;;23.30;80.50;;;;;;5072909;28;20173;-11
2022/06/29 06:15:48;;;;;;;5.53;2.60;;;23.40;80.20;;;;;;5072514;28;20186;-11
2022/06/29 06:18:13;;;;;;;2.30;1.90;;;23.40;79.60;;;;;;5071558;28;20279;-11
2022/06/29 06:20:40;;;;;;;2.93;2.17;;;23.50;79.70;;;;;;5072360;28;20702;-11
2022/06/29 06:23:06;;;;;;;6.47;2.10;;;23.50;78.50;;;;;;5072598;28;20187;-11
2022/06/29 06:25:32;;;;;;;5.50;2.27;;;23.60;78.20;;;;;;5070900;28;20192;-11
2022/06/29 06:28:00;;;;;;;3.73;2.37;;;23.60;79.50;;;;;;5071671;28;20167;-11
2022/06/29 06:30:26;;;;;;;3.20;2.13;;;23.80;75.80;;;;;;5071581;28;20372;-11
2022/06/29 06:32:53;;;;;;;3.33;2.10;;;24.10;73.30;;;;;;5070395;28;20170;-11
2022/06/29 06:35:19;;;;;;;3.97;2.20;;;24.30;71.20;;;;;;5071126;28;20174;-11
2022/06/29 06:37:46;;;;;;;3.80;2.10;;;24.40;70.80;;;;;;5068892;28;20170;-11
2022/06/29 06:42:58;;;;;;;2.60;2.30;;;24.20;71.20;;;;;;5071042;28;20583;-11
2022/06/29 06:45:23;;;;;;;5.20;2.20;;;24.20;71.40;;;;;;5070672;28;20173;-11
2022/06/29 06:47:51;;;;;;;4.33;2.20;;;24.10;71.70;;;;;;5069313;28;20179;-11
2022/06/29 06:50:18;;;;;;;2.77;1.87;;;24.10;72.40;;;;;;5068165;28;20226;-11
2022/06/29 06:52:43;;;;;;;3.20;2.10;;;24.00;72.80;;;;;;5069425;28;20209;-11
2022/06/29 06:55:11;;;;;;;4.63;2.17;;;24.00;72.60;;;;;;5069750;28;20583;-11
2022/06/29 06:57:36;;;;;;;3.67;2.23;;;24.00;72.80;;;;;;5072435;28;20207;-11
2022/06/29 07:00:04;;;;;;;4.27;2.43;;;24.00;73.00;;;;;;5069169;28;20203;-11
2022/06/29 07:02:29;;;;;;;2.47;2.00;;;24.00;72.80;;;;;;5069858;28;20217;-11
2022/06/29 07:04:55;;;;;;;2.90;2.17;;;24.00;74.80;;;;;;5068154;28;20432;-11
2022/06/29 07:07:21;;;;;;;3.07;2.10;;;24.00;78.20;;;;;;5070446;28;20648;-11
2022/06/29 07:09:47;;;;;;;2.30;1.90;;;23.90;74.40;;;;;;5070641;28;20175;-11
2022/06/29 07:12:12;;;;;;;4.67;2.40;;;23.90;75.00;;;;;;5070084;28;20522;-11
2022/06/29 07:14:38;;;;;;;2.40;2.10;;;23.90;78.80;;;;;;5069964;28;20193;-11
2022/06/29 07:17:04;;;;;;;3.43;2.30;;;23.90;81.60;;;;;;5069923;28;20679;-11
2022/06/29 07:19:30;;;;;;;4.53;2.27;;;23.90;77.00;;;;;;5070877;28;20173;-11
2022/06/29 07:21:55;;;;;;;3.93;2.50;;;23.90;77.20;;;;;;5069426;28;20205;-11
2022/06/29 07:24:21;;;;;;;3.90;2.10;;;23.90;75.50;;;;;;5070444;28;20210;-11
2022/06/29 07:26:46;;;;;;;5.77;2.63;;;23.90;75.60;;;;;;5069750;28;20232;-11
2022/06/29 07:29:12;;;;;;;4.83;2.77;;;23.90;86.10;;;;;;5070972;28;20218;-11
2022/06/29 07:31:38;;;;;;;5.13;2.80;;;23.90;85.40;;;;;;5071542;28;20174;-11
2022/06/29 07:34:04;;;;;;;5.10;2.43;;;23.90;79.70;;;;;;5069236;28;20179;-11
2022/06/29 07:36:30;;;;;;;8.07;2.50;;;23.90;80.90;;;;;;5072765;28;20568;-11
2022/06/29 07:38:56;;;;;;;3.70;2.40;;;23.90;77.00;;;;;;5074457;28;20174;-11
2022/06/29 07:41:22;;;;;;;2.57;1.97;;;23.90;81.10;;;;;;5073675;28;20214;-11
2022/06/29 07:43:47;;;;;;;2.30;2.10;;;23.80;81.70;;;;;;5075154;28;20175;-11
2022/06/29 07:46:13;;;;;;;2.83;2.10;;;23.80;79.60;;;;;;5072662;28;20446;-11
2022/06/29 07:48:39;;;;;;;4.87;2.40;;;23.70;79.20;;;;;;5072384;28;20161;-11
2022/06/29 07:51:05;;;;;;;2.70;1.87;;;23.70;77.80;;;;;;5072695;28;20207;-11
2022/06/29 07:53:31;;;;;;;3.77;2.33;;;23.70;78.20;;;;;;5072971;28;20201;-11
2022/06/29 07:55:57;;;;;;;2.67;2.17;;;23.60;79.30;;;;;;5071419;28;20434;-11
2022/06/29 07:58:24;;;;;;;3.33;2.23;;;23.70;78.40;;;;;;5071870;28;20165;-11
2022/06/29 08:00:50;;;;;;;3.27;1.97;;;23.70;78.40;;;;;;5072523;28;20206;-11
2022/06/29 08:03:15;;;;;;;4.10;2.40;;;23.70;78.90;;;;;;5072170;28;20178;-11
2022/06/29 08:05:41;;;;;;;4.70;2.60;;;23.70;77.70;;;;;;5072299;28;20464;-11
2022/06/29 08:08:08;;;;;;;6.07;2.80;;;23.80;85.00;;;;;;5071676;28;20194;-11
2022/06/29 08:10:34;;;;;;;5.27;3.10;;;23.70;84.30;;;;;;5072147;28;20215;-11
2022/06/29 08:13:00;;;;;;;5.80;2.83;;;23.70;85.60;;;;;;5072264;28;20176;-11
2022/06/29 08:15:27;;;;;;;6.43;2.80;;;23.70;88.60;;;;;;5071290;28;20175;-11
2022/06/29 08:17:53;;;;;;;9.00;2.60;;;23.70;90.30;;;;;;5070803;28;20267;-11
2022/06/29 08:20:20;;;;;;;3.23;2.33;;;23.70;89.80;;;;;;5073359;28;20203;-11
2022/06/29 08:22:46;;;;;;;5.70;3.30;;;23.70;84.50;;;;;;5074600;28;20214;-11
2022/06/29 08:25:16;;;;;;;3.23;2.60;;;23.70;88.50;;;;;;5095604;28;20232;-11
2022/06/29 08:27:42;;;;;;;3.40;2.40;;;23.80;88.90;;;;;;5097046;28;20174;-11
2022/06/29 08:30:10;;;;;;;3.67;2.43;;;23.70;90.10;;;;;;5097302;28;20341;-11
2022/06/29 08:32:39;;;;;;;6.17;2.90;;;23.80;82.60;;;;;;5092204;28;20187;-11
2022/06/29 08:35:05;;;;;;;3.17;2.30;;;23.80;90.30;;;;;;5091144;28;20183;-11
2022/06/29 08:37:30;;;;;;;4.47;2.40;;;23.80;81.40;;;;;;5091119;28;20515;-11
2022/06/29 08:39:56;;;;;;;7.63;2.93;;;23.80;78.90;;;;;;5090331;28;20187;-11
2022/06/29 08:42:24;;;;;;;4.87;2.60;;;23.90;88.20;;;;;;5092118;28;20216;-11
2022/06/29 08:44:50;;;;;;;5.53;2.70;;;23.90;84.70;;;;;;5090902;28;20184;-11
2022/06/29 08:47:16;;;;;;;8.73;3.00;;;23.90;89.30;;;;;;5089399;28;20173;-11
2022/06/29 08:49:44;;;;;;;6.30;3.10;;;23.90;84.30;;;;;;5089504;28;20174;-11
2022/06/29 08:52:10;;;;;;;4.97;3.20;;;23.90;89.40;;;;;;5089731;28;20185;-11
2022/06/29 08:54:40;;;;;;;5.53;3.30;;;23.90;85.40;;;;;;5089738;28;20176;-11
2022/06/29 08:57:08;;;;;;;5.37;2.10;;;23.90;90.70;;;;;;5089097;28;20210;-11
2022/06/29 08:59:35;;;;;;;6.10;3.13;;;23.90;81.40;;;;;;5094591;28;20175;-11
2022/06/29 09:02:02;;;;;;;3.27;2.43;;;23.90;87.80;;;;;;5092296;28;20433;-11
2022/06/29 09:04:28;;;;;;;3.70;2.30;;;23.90;83.70;;;;;;5097260;28;20187;-11
2022/06/29 09:06:55;;;;;;;3.67;2.23;;;23.90;84.00;;;;;;5094610;28;20178;-11
2022/06/29 09:09:22;;;;;;;4.17;2.70;;;23.90;79.30;;;;;;5096238;28;20400;-11
2022/06/29 09:11:50;;;;;;;6.23;3.03;;;24.00;90.60;;;;;;5094897;28;20169;-11
2022/06/29 09:14:25;;;;;;;5.20;3.00;;;24.00;92.00;;;;;;5095504;28;20542;-11
2022/06/29 09:16:57;;;;;;;4.57;2.90;;;23.90;90.90;;;;;;5096825;28;20187;-11
2022/06/29 09:19:29;;;;;;;7.07;3.30;;;23.90;90.90;;;;;;5096792;28;20171;-11
2022/06/29 09:21:57;;;;;;;6.00;2.90;;;23.80;91.00;;;;;;5107596;28;20200;-11
2022/06/29 09:24:26;;;;;;;7.07;2.93;;;23.80;90.90;;;;;;5104559;28;20252;-11
2022/06/29 09:26:58;;;;;;;7.90;2.90;;;23.80;91.80;;;;;;5108778;28;20170;-11
2022/06/29 09:29:32;;;;;;;4.20;2.53;;;23.80;93.10;;;;;;5105806;28;20220;-11
2022/06/29 09:32:07;;;;;;;5.70;2.77;;;23.80;93.20;;;;;;5102828;28;20191;-11
2022/06/29 09:34:38;;;;;;;5.67;3.10;;;23.70;92.10;;;;;;5107476;28;20178;-11
2022/06/29 09:37:05;;;;;;;4.83;2.73;;;23.70;92.30;;;;;;5100863;28;20182;-11
2022/06/29 09:39:46;;;;;;;7.80;2.80;;;23.70;92.60;;;;;;5110751;28;20561;-11
2022/06/29 09:42:24;;;;;;;5.70;2.50;;;23.70;91.70;;;;;;5076295;28;20210;-11
2022/06/29 09:44:50;;;;;;;5.07;2.70;;;23.70;92.70;;;;;;5093073;28;20538;-11
2022/06/29 09:47:19;;;;;;;5.73;2.83;;;23.70;92.50;;;;;;5076409;28;20343;-11
2022/06/29 09:50:04;;;;;;;4.53;2.47;;;23.70;92.60;;;;;;5075809;28;20165;-11
2022/06/29 09:52:32;;;;;;;6.40;2.93;;;23.70;89.00;;;;;;5091162;28;20184;-11
2022/06/29 09:55:00;;;;;;;4.67;3.00;;;23.80;91.30;;;;;;5097634;28;20174;-11
2022/06/29 09:57:33;;;;;;;5.47;2.30;;;23.80;90.00;;;;;;5093654;28;20230;-11
2022/06/29 10:02:53;;;;;;;5.60;2.80;;;23.90;93.20;;;;;;5099025;28;20224;-11
2022/06/29 10:05:21;;;;;;;6.03;2.83;;;23.90;93.40;;;;;;5098473;28;20196;-11
2022/06/29 10:07:49;;;;;;;4.87;3.33;;;23.90;93.40;;;;;;5094385;28;20255;-11
2022/06/29 10:10:17;;;;;;;5.40;3.03;;;23.90;93.70;;;;;;5094724;28;20204;-11
2022/06/29 10:16:02;;;;;;;4.20;2.60;;;23.90;91.70;;;;;;5075140;28;20498;-11
2022/06/29 10:18:51;;;;;;;2.93;2.20;;;24.00;87.10;;;;;;5074990;28;20174;-11
2022/06/29 10:21:27;;;;;;;6.07;3.40;;;24.00;83.00;;;;;;5053337;28;20299;-11
2022/06/29 10:23:53;;;;;;;6.73;3.30;;;24.10;91.90;;;;;;5074330;28;20285;-11
2022/06/29 10:26:30;;;;;;;3.17;2.40;;;24.00;91.00;;;;;;5073497;28;20265;-11
2022/06/29 10:29:19;;;;;;;3.60;2.33;;;24.00;85.60;;;;;;5074407;28;20524;-11
2022/06/29 10:31:56;;;;;;;2.37;2.10;;;24.10;83.50;;;;;;5074419;28;20453;-11
2022/06/29 10:34:31;;;;;;;3.47;2.33;;;24.10;83.20;;;;;;5073985;28;20457;-11
2022/06/29 10:37:16;;;;;;;9.20;3.10;;;24.10;83.30;;;;;;5074726;28;20171;-11
2022/06/29 10:39:48;;;;;;;3.47;2.70;;;24.10;90.80;;;;;;5074820;28;20600;-11
2022/06/29 10:45:14;;;;;;;3.67;2.20;;;24.20;90.90;;;;;;5074366;28;20216;-11
2022/06/29 10:48:05;;;;;;;3.17;2.17;;;24.20;82.50;;;;;;5074514;28;20178;-11
2022/06/29 10:50:31;;;;;;;4.33;2.33;;;24.30;80.70;;;;;;5085127;28;20202;-11
2022/06/29 10:53:14;;;;;;;3.87;2.60;;;24.40;80.90;;;;;;5094652;28;20522;-11
2022/06/29 10:55:46;;;;;;;4.13;2.50;;;24.40;86.30;;;;;;5093549;28;20175;-11
2022/06/29 10:58:12;;;;;;;6.83;3.23;;;24.40;80.60;;;;;;5088802;28;20381;-11
2022/06/29 11:00:42;;;;;;;6.53;3.63;;;24.40;91.40;;;;;;5087360;28;20189;-11
2022/06/29 11:03:18;;;;;;;4.00;3.20;;;24.40;91.70;;;;;;5094951;28;20497;-11
2022/06/29 11:14:03;;;;;;;6.43;3.30;;;24.40;93.00;;;;;;5095056;28;20180;-11
2022/06/29 11:16:32;;;;;;;6.27;3.53;;;24.40;93.10;;;;;;5094234;28;20189;-11
2022/06/29 11:18:58;;;;;;;7.37;4.00;;;24.40;92.80;;;;;;5093684;28;20171;-11
2022/06/29 11:21:24;;;;;;;4.93;2.87;;;24.40;93.20;;;;;;5094501;28;20232;-11
2022/06/29 11:24:03;;;;;;;4.37;3.23;;;24.40;91.50;;;;;;5094220;28;20744;-11
2022/06/29 11:26:32;;;;;;;5.43;3.33;;;24.50;92.30;;;;;;5094298;28;20174;-11
2022/06/29 11:28:59;;;;;;;5.63;3.53;;;24.50;91.00;;;;;;5087945;28;20342;-11
2022/06/29 11:31:26;;;;;;;4.43;2.70;;;24.50;92.30;;;;;;5087290;28;20317;-11
2022/06/29 11:33:53;;;;;;;5.70;3.20;;;24.50;87.10;;;;;;5091278;28;20182;-11
2022/06/29 11:36:20;;;;;;;5.03;2.70;;;24.60;90.40;;;;;;5086485;28;20179;-11
2022/06/29 11:38:47;;;;;;;5.40;3.13;;;24.60;89.60;;;;;;5067022;28;20431;-11
2022/06/29 11:41:19;;;;;;;5.73;3.20;;;24.60;89.90;;;;;;5066451;28;20353;-11
2022/06/29 11:43:46;;;;;;;6.53;3.30;;;24.70;86.00;;;;;;5066538;28;20249;-11
2022/06/29 11:46:22;;;;;;;7.10;3.33;;;24.70;89.10;;;;;;5066004;28;20175;-11
2022/06/29 11:51:51;;;;;;;2.67;2.43;;;24.70;84.80;;;;;;5068564;28;20213;-11
2022/06/29 11:54:17;;;;;;;5.27;3.10;;;24.80;81.30;;;;;;5066855;28;20245;-11
2022/06/29 11:56:43;;;;;;;3.63;2.50;;;24.80;84.60;;;;;;5064933;28;20171;-11
2022/06/29 11:59:15;;;;;;;5.70;2.67;;;24.80;80.30;;;;;;5065661;28;20175;-11
2022/06/29 12:01:53;;;;;;;4.20;3.33;;;24.80;81.70;;;;;;5066821;28;20460;-11
2022/06/29 12:04:30;;;;;;;5.80;3.47;;;24.80;90.20;;;;;;5066540;28;20179;-11
2022/06/29 12:07:11;;;;;;;8.40;3.93;;;24.80;91.10;;;;;;5068498;28;20546;-11
2022/06/29 12:09:38;;;;;;;6.07;3.50;;;24.80;90.70;;;;;;5067850;28;20197;-11
2022/06/29 12:12:09;;;;;;;4.83;2.93;;;24.80;87.30;;;;;;5067090;28;20502;-11
2022/06/29 12:14:36;;;;;;;3.13;2.50;;;24.80;84.70;;;;;;5066321;28;20178;-11
2022/06/29 12:17:02;;;;;;;4.30;3.90;;;24.90;81.90;;;;;;5066744;28;20164;-11
2022/06/29 12:19:28;;;;;;;5.33;3.83;;;24.90;87.80;;;;;;5066468;28;20186;-11
2022/06/29 12:21:54;;;;;;;7.37;4.60;;;24.90;89.60;;;;;;5069384;28;20171;-11
2022/06/29 12:24:20;;;;;;;5.00;3.43;;;24.90;90.30;;;;;;5070383;28;20183;-11
2022/06/29 12:26:46;;;;;;;6.47;3.87;;;24.90;87.30;;;;;;5070766;28;20182;-11
2022/06/29 12:29:13;;;;;;;4.03;2.93;;;24.90;91.10;;;;;;5069992;28;20218;-11
2022/06/29 12:31:42;;;;;;;3.40;2.47;;;24.90;88.60;;;;;;5070020;28;20333;-11
2022/06/29 12:34:10;;;;;;;4.97;2.93;;;24.90;84.60;;;;;;5064765;28;20168;-11
2022/06/29 12:36:36;;;;;;;4.80;2.90;;;24.90;82.50;;;;;;5070140;28;20174;-11
2022/06/29 12:39:02;;;;;;;3.00;2.70;;;24.90;81.80;;;;;;5068873;28;20171;-11
2022/06/29 12:41:28;;;;;;;6.33;3.70;;;24.90;81.80;;;;;;5070067;28;20195;-11
2022/06/29 12:43:54;;;;;;;5.67;3.37;;;24.90;84.10;;;;;;5069331;28;20584;-11
2022/06/29 12:46:20;;;;;;;2.70;2.50;;;25.00;82.10;;;;;;5069230;28;20186;-11
2022/06/29 12:48:45;;;;;;;5.00;2.57;;;25.00;79.70;;;;;;5070467;28;20168;-11
2022/06/29 12:51:12;;;;;;;4.67;3.00;;;25.00;78.80;;;;;;5069930;28;20434;-11
2022/06/29 12:53:37;;;;;;;4.47;2.93;;;25.10;79.00;;;;;;5070143;28;20172;-11
2022/06/29 12:56:04;;;;;;;3.63;2.53;;;25.10;79.60;;;;;;5070123;28;20190;-11
2022/06/29 12:58:29;;;;;;;4.80;2.60;;;25.20;78.00;;;;;;5069654;28;20175;-11
2022/06/29 13:00:55;;;;;;;4.00;2.57;;;25.20;78.20;;;;;;5070550;28;20209;-11
2022/06/29 13:03:21;;;;;;;6.57;4.17;;;25.20;77.90;;;;;;5069832;28;20564;-11
2022/06/29 13:05:47;;;;;;;4.07;2.90;;;25.30;78.50;;;;;;5070667;28;20186;-11
2022/06/29 13:08:13;;;;;;;3.17;2.87;;;25.30;66.70;;;;;;5070574;28;20172;-11
2022/06/29 13:10:39;;;;;;;3.20;2.90;;;25.30;73.40;;;;;;5067101;28;20477;-11
2022/06/29 13:13:05;;;;;;;4.63;3.10;;;25.40;66.70;;;;;;5069361;28;20238;-11
2022/06/29 13:15:31;;;;;;;3.80;2.80;;;25.40;69.90;;;;;;5068389;28;20274;-11
2022/06/29 13:17:56;;;;;;;3.20;2.80;;;25.40;71.00;;;;;;5068652;28;20679;-11
2022/06/29 13:20:22;;;;;;;3.33;2.83;;;25.40;71.90;;;;;;5069089;28;20502;-11
2022/06/29 13:22:48;;;;;;;3.47;3.17;;;25.40;73.00;;;;;;5069027;28;20222;-11
2022/06/29 13:25:13;;;;;;;4.07;3.27;;;25.40;73.00;;;;;;5068983;28;20259;-11
2022/06/29 13:27:39;;;;;;;3.93;3.30;;;25.50;73.00;;;;;;5071094;28;20456;-11
2022/06/29 13:30:06;;;;;;;4.73;3.30;;;25.50;75.20;;;;;;5069044;28;20467;-11